createdAt,value
2022-10-22T00:01:18.387Z,26.13
2022-10-22T00:04:01.102Z,27.23
2022-10-22T00:06:53.072Z,26.40
2022-10-22T00:09:35.382Z,27.10
2022-10-22T00:12:24.126Z,28.67
2022-10-22T00:15:06.384Z,31.85
2022-10-22T00:17:57.011Z,31.92
2022-10-22T00:20:39.367Z,35.17
2022-10-22T00:23:28.011Z,34.75
2022-10-22T00:26:24.936Z,34.58
2022-10-22T00:29:14.096Z,32.83
2022-10-22T00:34:44.107Z,32.10
2022-10-22T00:37:33.103Z,32.33
2022-10-22T00:40:16.365Z,32.88
2022-10-22T00:43:05.362Z,33.90
2022-10-22T00:45:47.383Z,34.55
2022-10-22T00:48:41.156Z,35.30
2022-10-22T00:51:23.375Z,34.25
2022-10-22T00:54:15.089Z,35.55
2022-10-22T00:56:57.359Z,37.42
2022-10-22T00:59:47.073Z,39.20
2022-10-22T01:02:29.368Z,38.65
2022-10-22T01:05:18.119Z,40.63
2022-10-22T01:08:02.475Z,38.50
2022-10-22T01:11:23.120Z,37.85
2022-10-22T01:14:20.343Z,40.40
2022-10-22T01:17:18.166Z,40.17
2022-10-22T01:20:15.354Z,37.78
2022-10-22T01:23:22.998Z,38.25
2022-10-22T01:26:51.929Z,38.15
2022-10-22T01:29:47.990Z,39.08
2022-10-22T01:32:33.362Z,37.70
2022-10-22T01:35:26.015Z,38.83
2022-10-22T01:38:13.431Z,39.00
2022-10-22T01:41:03.005Z,38.17
2022-10-22T01:43:45.359Z,37.10
2022-10-22T01:46:36.100Z,35.17
2022-10-22T01:49:31.001Z,34.05
2022-10-22T01:52:27.070Z,36.05
2022-10-22T01:55:30.111Z,33.88
2022-10-22T01:59:03.807Z,34.47
2022-10-22T02:01:55.070Z,32.58
2022-10-22T02:04:50.005Z,31.90
2022-10-22T02:07:45.082Z,30.65
2022-10-22T02:10:36.083Z,31.25
2022-10-22T02:13:23.585Z,30.35
2022-10-22T02:16:15.981Z,32.38
2022-10-22T02:19:02.674Z,30.77
2022-10-22T02:21:51.089Z,32.60
2022-10-22T02:24:41.078Z,31.40
2022-10-22T02:27:57.963Z,32.95
2022-10-22T02:30:51.073Z,29.88
2022-10-22T02:33:50.343Z,31.70
2022-10-22T02:36:40.045Z,30.13
2022-10-22T02:39:23.429Z,29.90
2022-10-22T02:42:12.062Z,31.13
2022-10-22T02:44:54.369Z,35.28
2022-10-22T02:47:44.065Z,36.83
2022-10-22T02:50:26.354Z,41.03
2022-10-22T02:53:15.095Z,45.42
2022-10-22T02:55:57.328Z,48.05
2022-10-22T02:58:46.073Z,52.03
2022-10-22T03:01:35.092Z,51.90
2022-10-22T03:04:17.290Z,50.90
2022-10-22T03:07:06.074Z,51.75
2022-10-22T03:09:48.287Z,47.35
2022-10-22T03:12:37.062Z,35.40
2022-10-22T03:15:19.982Z,31.80
2022-10-22T03:18:09.081Z,29.75
2022-10-22T03:20:51.307Z,29.42
2022-10-22T03:23:40.968Z,28.30
2022-10-22T03:26:36.905Z,30.52
2022-10-22T03:29:28.051Z,31.58
2022-10-22T03:32:10.432Z,28.65
2022-10-22T03:37:54.062Z,38.13
2022-10-22T03:40:43.081Z,49.97
2022-10-22T03:43:25.336Z,54.15
2022-10-22T03:46:13.979Z,47.80
2022-10-22T03:49:03.383Z,43.75
2022-10-22T03:51:51.402Z,39.22
2022-10-22T03:54:33.166Z,30.55
2022-10-22T03:57:21.385Z,27.38
2022-10-22T04:00:03.047Z,20.98
2022-10-22T04:02:46.230Z,22.95
2022-10-22T04:05:35.069Z,17.77
2022-10-22T04:08:24.408Z,17.92
2022-10-22T04:11:06.080Z,22.20
2022-10-22T04:13:54.336Z,23.05
2022-10-22T04:16:39.075Z,24.70
2022-10-22T04:19:21.279Z,25.13
2022-10-22T04:22:13.042Z,22.27
2022-10-22T04:25:02.080Z,20.55
2022-10-22T04:27:56.920Z,22.15
2022-10-22T04:30:46.057Z,21.08
2022-10-22T04:33:28.383Z,20.27
2022-10-22T04:36:19.135Z,20.17
2022-10-22T04:39:07.377Z,19.85
2022-10-22T04:41:56.062Z,18.45
2022-10-22T04:44:45.072Z,17.83
2022-10-22T04:47:27.262Z,18.15
2022-10-22T04:50:09.001Z,18.65
2022-10-22T04:52:51.335Z,17.90
2022-10-22T04:55:40.081Z,17.10
2022-10-22T04:58:22.534Z,17.13
2022-10-22T05:01:22.079Z,18.98
2022-10-22T05:04:06.346Z,18.25
2022-10-22T05:06:55.048Z,18.25
2022-10-22T05:09:44.050Z,20.38
2022-10-22T05:12:27.149Z,19.58
2022-10-22T05:15:16.086Z,20.08
2022-10-22T05:18:21.769Z,18.77
2022-10-22T05:21:12.048Z,17.05
2022-10-22T05:23:56.503Z,15.23
2022-10-22T05:26:45.067Z,14.43
2022-10-22T05:29:28.377Z,15.60
2022-10-22T05:32:17.042Z,13.05
2022-10-22T05:34:59.357Z,12.27
2022-10-22T05:37:48.172Z,13.40
2022-10-22T05:40:31.554Z,14.05
2022-10-22T05:43:20.107Z,12.95
2022-10-22T05:46:02.962Z,13.73
2022-10-22T05:48:52.114Z,14.43
2022-10-22T05:51:36.489Z,12.52
2022-10-22T05:54:28.071Z,12.20
2022-10-22T05:57:10.514Z,11.77
2022-10-22T05:59:59.064Z,12.05
2022-10-22T06:02:41.801Z,10.73
2022-10-22T06:05:31.089Z,12.00
2022-10-22T06:08:16.785Z,12.10
2022-10-22T06:11:09.037Z,10.27
2022-10-22T06:13:52.503Z,11.63
2022-10-22T06:16:42.103Z,13.40
2022-10-22T06:19:28.135Z,13.27
2022-10-22T06:22:17.057Z,12.50
2022-10-22T06:25:07.124Z,12.55
2022-10-22T06:28:05.970Z,13.55
2022-10-22T06:30:55.478Z,13.45
2022-10-22T06:33:41.065Z,11.75
2022-10-22T06:36:31.611Z,13.82
2022-10-22T06:39:14.059Z,12.60
2022-10-22T06:41:56.413Z,13.15
2022-10-22T06:44:49.058Z,12.20
2022-10-22T06:47:37.353Z,13.43
2022-10-22T06:50:20.063Z,13.55
2022-10-22T06:53:02.283Z,14.52
2022-10-22T06:55:51.059Z,15.23
2022-10-22T06:58:33.246Z,13.65
2022-10-22T07:01:25.164Z,13.13
2022-10-22T07:04:17.063Z,11.48
2022-10-22T07:06:59.343Z,13.00
2022-10-22T07:09:48.061Z,11.52
2022-10-22T07:12:30.338Z,12.18
2022-10-22T07:15:19.106Z,9.60
2022-10-22T07:18:01.320Z,9.85
2022-10-22T07:20:51.068Z,11.60
2022-10-22T07:23:41.046Z,11.23
2022-10-22T07:26:31.869Z,11.30
2022-10-22T07:29:23.069Z,11.15
2022-10-22T07:32:05.384Z,10.00
2022-10-22T07:34:54.050Z,10.63
2022-10-22T07:37:36.529Z,10.90
2022-10-22T07:40:25.076Z,11.85
2022-10-22T07:43:07.485Z,12.32
2022-10-22T07:45:56.231Z,11.77
2022-10-22T07:48:38.571Z,12.13
2022-10-22T07:51:27.047Z,14.15
2022-10-22T07:54:09.336Z,13.70
2022-10-22T07:56:58.040Z,13.90
2022-10-22T07:59:40.349Z,14.25
2022-10-22T08:02:29.042Z,15.35
2022-10-22T08:05:11.393Z,18.30
2022-10-22T08:07:59.970Z,19.45
2022-10-22T08:10:49.071Z,18.35
2022-10-22T08:13:31.964Z,15.65
2022-10-22T08:16:20.970Z,14.00
2022-10-22T08:19:09.982Z,17.50
2022-10-22T08:31:08.181Z,19.50
2022-10-22T08:34:16.970Z,15.45
2022-10-22T08:37:22.075Z,14.30
2022-10-22T08:40:04.395Z,15.63
2022-10-22T08:43:02.970Z,14.10
2022-10-22T08:46:29.953Z,13.52
2022-10-22T08:49:29.057Z,11.65
2022-10-22T08:52:12.468Z,12.88
2022-10-22T08:55:07.049Z,13.07
2022-10-22T08:58:05.048Z,11.88
2022-10-22T09:01:08.041Z,14.30
2022-10-22T09:04:33.047Z,14.67
2022-10-22T09:07:15.442Z,13.77
2022-10-22T09:10:09.057Z,14.80
2022-10-22T09:12:58.051Z,14.40
2022-10-22T09:15:41.670Z,15.55
2022-10-22T09:19:02.970Z,14.70
2022-10-22T09:22:00.303Z,14.95
2022-10-22T09:24:53.058Z,15.27
2022-10-22T09:27:38.620Z,15.85
2022-10-22T09:30:30.960Z,14.98
2022-10-22T09:33:18.179Z,13.95
2022-10-22T09:36:11.124Z,13.18
2022-10-22T09:38:56.897Z,13.70
2022-10-22T09:41:46.114Z,14.45
2022-10-22T09:44:29.373Z,15.07
2022-10-22T09:48:02.565Z,14.40
2022-10-22T09:50:54.375Z,15.43
2022-10-22T09:53:50.050Z,13.70
2022-10-22T09:56:56.507Z,13.63
2022-10-22T09:59:50.965Z,13.98
2022-10-22T10:02:43.015Z,13.38
2022-10-22T10:05:42.323Z,13.23
2022-10-22T10:08:26.009Z,13.18
2022-10-22T10:11:28.961Z,13.10
2022-10-22T10:14:39.991Z,13.38
2022-10-22T10:17:47.479Z,11.82
2022-10-22T10:20:49.970Z,11.95
2022-10-22T10:23:41.442Z,12.55
2022-10-22T10:26:29.041Z,10.20
2022-10-22T10:29:26.466Z,11.93
2022-10-22T10:32:23.618Z,11.98
2022-10-22T10:35:35.967Z,10.15
2022-10-22T10:38:49.521Z,10.18
2022-10-22T10:42:04.962Z,9.07
2022-10-22T10:44:56.363Z,8.50
2022-10-22T10:48:13.082Z,9.40
2022-10-22T10:51:31.027Z,9.02
2022-10-22T10:54:27.041Z,8.40
2022-10-22T10:57:58.048Z,9.27
2022-10-22T11:01:01.341Z,9.65
2022-10-22T11:03:50.043Z,10.10
2022-10-22T11:06:41.411Z,11.45
2022-10-22T11:09:26.061Z,13.00
2022-10-22T11:12:25.211Z,10.98
2022-10-22T11:15:37.976Z,10.57
2022-10-22T11:18:38.350Z,11.68
2022-10-22T11:21:40.990Z,11.05
2022-10-22T11:24:38.329Z,13.40
2022-10-22T11:27:41.269Z,11.27
2022-10-22T11:30:31.558Z,11.80
2022-10-22T11:33:24.062Z,11.68
2022-10-22T11:36:22.021Z,11.38
2022-10-22T11:39:13.056Z,12.05
2022-10-22T11:41:56.343Z,12.10
2022-10-22T11:44:57.054Z,11.48
2022-10-22T11:48:15.339Z,13.02
2022-10-22T11:51:09.953Z,12.63
2022-10-22T11:53:52.940Z,13.57
2022-10-22T11:56:48.043Z,14.45
2022-10-22T11:59:47.374Z,13.55
2022-10-22T12:02:53.046Z,14.18
2022-10-22T12:05:35.989Z,15.07
2022-10-22T12:08:29.968Z,15.35
2022-10-22T12:12:01.131Z,14.93
2022-10-22T12:15:00.409Z,15.07
2022-10-22T12:17:49.052Z,14.73
2022-10-22T12:20:31.537Z,15.43
2022-10-22T12:23:20.973Z,14.55
2022-10-22T12:26:12.325Z,15.75
2022-10-22T12:28:54.056Z,15.65
2022-10-22T12:31:41.482Z,18.02
2022-10-22T12:34:37.060Z,16.60
2022-10-22T12:37:27.335Z,17.38
2022-10-22T12:40:09.955Z,17.60
2022-10-22T12:43:02.396Z,17.17
2022-10-22T12:45:45.056Z,18.45
2022-10-22T12:48:44.979Z,18.58
2022-10-22T12:51:28.389Z,17.05
2022-10-22T12:54:26.980Z,18.40
2022-10-22T12:57:10.337Z,18.15
2022-10-22T13:02:54.950Z,18.58
2022-10-22T13:05:47.045Z,19.23
2022-10-22T13:08:34.438Z,18.85
2022-10-22T13:11:29.053Z,18.85
2022-10-22T13:14:26.406Z,19.73
2022-10-22T13:17:50.050Z,17.75
2022-10-22T13:20:40.093Z,17.85
2022-10-22T13:23:31.508Z,17.73
2022-10-22T13:26:24.057Z,17.90
2022-10-22T13:29:08.382Z,18.77
2022-10-22T13:31:59.964Z,17.52
2022-10-22T13:34:48.931Z,18.70
2022-10-22T13:37:40.750Z,17.85
2022-10-22T13:40:24.042Z,19.92
2022-10-22T13:43:06.288Z,20.15
2022-10-22T13:45:55.098Z,20.63
2022-10-22T13:48:44.338Z,22.02
2022-10-22T13:51:44.042Z,22.48
2022-10-22T13:54:26.690Z,21.23
2022-10-22T13:57:16.058Z,23.65
2022-10-22T14:00:05.032Z,23.17
2022-10-22T14:02:48.582Z,24.45
2022-10-22T14:05:38.042Z,26.10
2022-10-22T14:08:23.486Z,25.05
2022-10-22T14:11:12.062Z,26.77
2022-10-22T14:13:54.433Z,26.35
2022-10-22T14:16:43.007Z,28.65
2022-10-22T14:19:33.047Z,29.08
2022-10-22T14:22:24.072Z,28.60
2022-10-22T14:25:06.376Z,27.50
2022-10-22T14:27:54.952Z,28.48
2022-10-22T14:30:44.137Z,29.67
2022-10-22T14:33:35.116Z,30.23
2022-10-22T14:36:28.077Z,32.08
2022-10-22T14:39:16.406Z,33.45
2022-10-22T14:41:57.961Z,32.70
2022-10-22T14:44:48.410Z,32.85
2022-10-22T14:47:31.037Z,33.33
2022-10-22T14:50:20.337Z,35.92
2022-10-22T14:53:02.317Z,34.53
2022-10-22T14:55:53.047Z,32.50
2022-10-22T14:58:35.383Z,34.15
2022-10-22T15:01:24.063Z,31.75
2022-10-22T15:04:06.486Z,32.58
2022-10-22T15:06:55.041Z,32.03
2022-10-22T15:09:45.042Z,30.83
2022-10-22T15:12:34.021Z,32.97
2022-10-22T15:15:17.334Z,32.72
2022-10-22T15:18:08.049Z,32.67
2022-10-22T15:20:50.463Z,34.65
2022-10-22T15:23:39.030Z,31.67
2022-10-22T15:26:28.963Z,31.63
2022-10-22T15:29:24.053Z,32.08
2022-10-22T15:32:13.301Z,31.90
2022-10-22T15:34:56.076Z,33.63
2022-10-22T15:37:44.352Z,31.50
2022-10-22T15:40:25.980Z,31.30
2022-10-22T15:43:14.337Z,31.17
2022-10-22T15:46:18.945Z,34.22
2022-10-22T15:49:08.476Z,32.63
2022-10-22T15:51:50.038Z,31.77
2022-10-22T15:54:38.948Z,30.92
2022-10-22T15:57:21.394Z,31.38
2022-10-22T16:00:09.957Z,31.45
2022-10-22T16:02:52.451Z,33.33
2022-10-22T16:05:40.934Z,32.13
2022-10-22T16:08:24.479Z,31.38
2022-10-22T16:11:13.025Z,31.60
2022-10-22T16:14:03.048Z,31.35
2022-10-22T16:16:54.355Z,31.95
2022-10-22T16:19:37.463Z,31.15
2022-10-22T16:22:25.300Z,29.33
2022-10-22T16:25:07.083Z,30.88
2022-10-22T16:27:53.198Z,30.05
2022-10-22T16:30:42.031Z,30.85
2022-10-22T16:33:41.134Z,32.25
2022-10-22T16:36:40.087Z,35.65
2022-10-22T16:39:22.253Z,32.67
2022-10-22T16:42:10.927Z,32.78
2022-10-22T16:45:00.018Z,33.05
2022-10-22T16:47:50.068Z,32.22
2022-10-22T16:50:39.362Z,33.47
2022-10-22T16:53:22.067Z,34.20
2022-10-22T16:56:04.352Z,35.17
2022-10-22T16:58:54.036Z,34.72
2022-10-22T17:01:43.143Z,34.40
2022-10-22T17:04:25.511Z,34.83
2022-10-22T17:07:14.021Z,33.53
2022-10-22T17:10:03.031Z,33.80
2022-10-22T17:12:45.342Z,34.42
2022-10-22T17:15:34.045Z,32.75
2022-10-22T17:18:16.560Z,32.67
2022-10-22T17:21:05.941Z,33.83
2022-10-22T17:23:56.024Z,33.65
2022-10-22T17:26:38.569Z,32.33
2022-10-22T17:29:30.064Z,33.53
2022-10-22T17:32:12.400Z,32.72
2022-10-22T17:35:01.104Z,34.63
2022-10-22T17:37:49.355Z,34.75
2022-10-22T17:40:32.019Z,34.70
2022-10-22T17:43:20.316Z,35.17
2022-10-22T17:46:12.036Z,35.53
2022-10-22T17:49:00.246Z,34.83
2022-10-22T17:51:49.088Z,34.60
2022-10-22T17:54:38.470Z,35.03
2022-10-22T17:57:21.018Z,34.67
2022-10-22T18:00:10.526Z,35.90
2022-10-22T18:02:53.007Z,37.80
2022-10-22T18:05:35.426Z,36.55
2022-10-22T18:08:24.002Z,37.95
2022-10-22T18:11:17.321Z,36.58
2022-10-22T18:14:00.022Z,38.83
2022-10-22T18:16:49.457Z,36.95
2022-10-22T18:19:32.018Z,38.05
2022-10-22T18:22:27.020Z,37.85
2022-10-22T18:25:17.509Z,38.50
2022-10-22T18:27:59.003Z,38.83
2022-10-22T18:30:51.046Z,38.38
2022-10-22T18:33:40.054Z,38.28
2022-10-22T18:36:32.030Z,38.65
2022-10-22T18:39:14.551Z,40.35
2022-10-22T18:42:03.052Z,39.50
2022-10-22T18:44:45.454Z,40.55
2022-10-22T18:47:34.003Z,40.30
2022-10-22T18:50:17.291Z,40.15
2022-10-22T18:53:06.019Z,40.35
2022-10-22T18:55:48.447Z,41.17
2022-10-22T18:58:37.005Z,42.28
2022-10-22T19:01:29.084Z,40.35
2022-10-22T19:04:18.028Z,40.58
2022-10-22T19:07:00.490Z,41.92
2022-10-22T19:09:50.026Z,42.55
2022-10-22T19:12:32.497Z,41.92
2022-10-22T19:15:21.086Z,41.80
2022-10-22T19:18:03.478Z,42.20
2022-10-22T19:20:54.003Z,41.83
2022-10-22T19:23:37.531Z,41.05
2022-10-22T19:26:29.011Z,40.58
2022-10-22T19:29:12.357Z,43.42
2022-10-22T19:32:01.030Z,41.40
2022-10-22T19:34:44.144Z,44.50
2022-10-22T19:37:33.001Z,41.15
2022-10-22T19:40:16.510Z,41.95
2022-10-22T19:43:05.004Z,43.80
2022-10-22T19:45:50.423Z,43.28
2022-10-22T19:48:39.071Z,41.97
2022-10-22T19:51:27.347Z,43.65
2022-10-22T19:54:20.034Z,43.45
2022-10-22T19:59:52.999Z,44.55
2022-10-22T20:02:42.045Z,46.00
2022-10-22T20:05:31.293Z,45.08
2022-10-22T20:08:13.913Z,47.03
2022-10-22T20:11:02.917Z,43.15
2022-10-22T20:13:49.723Z,44.70
2022-10-22T20:16:40.992Z,44.13
2022-10-22T20:19:33.995Z,45.15
2022-10-22T20:22:17.986Z,44.63
2022-10-22T20:25:07.988Z,44.42
2022-10-22T20:27:56.309Z,45.85
2022-10-22T20:30:39.007Z,44.08
2022-10-22T20:33:23.175Z,44.85
2022-10-22T20:36:16.989Z,44.17
2022-10-22T20:39:07.223Z,44.65
2022-10-22T20:41:55.989Z,44.45
2022-10-22T20:44:44.981Z,43.38
2022-10-22T20:47:34.317Z,43.33
2022-10-22T20:50:38.998Z,44.72
2022-10-22T20:53:28.993Z,45.53
2022-10-22T20:56:12.050Z,45.55
2022-10-22T20:59:12.002Z,46.45
2022-10-22T21:02:01.995Z,46.40
2022-10-22T21:04:45.729Z,46.47
2022-10-22T21:07:28.005Z,45.70
2022-10-22T21:10:17.407Z,45.47
2022-10-22T21:12:59.030Z,45.20
2022-10-22T21:15:41.404Z,46.72
2022-10-22T21:18:30.008Z,46.80
2022-10-22T21:21:20.148Z,44.95
2022-10-22T21:24:02.897Z,47.25
2022-10-22T21:26:45.896Z,44.13
2022-10-22T21:29:35.035Z,44.35
2022-10-22T21:32:23.292Z,45.55
2022-10-22T21:35:04.885Z,47.22
2022-10-22T21:37:53.310Z,44.40
2022-10-22T21:40:35.912Z,43.63
2022-10-22T21:43:19.444Z,44.35
2022-10-22T21:46:23.931Z,44.83
2022-10-22T21:49:06.627Z,45.65
2022-10-22T21:51:58.979Z,44.42
2022-10-22T21:54:47.284Z,45.03
2022-10-22T21:57:28.904Z,44.78
2022-10-22T22:00:19.250Z,47.03
2022-10-22T22:03:01.022Z,46.95
2022-10-22T22:05:51.495Z,45.35
2022-10-22T22:08:35.122Z,44.92
2022-10-22T22:11:27.266Z,45.53
2022-10-22T22:14:08.984Z,44.17
2022-10-22T22:16:51.246Z,45.78
2022-10-22T22:19:39.986Z,44.50
2022-10-22T22:22:28.970Z,46.90
2022-10-22T22:25:11.899Z,45.60
2022-10-22T22:28:00.883Z,45.83
2022-10-22T22:30:49.920Z,45.85
2022-10-22T22:33:38.966Z,46.33
2022-10-22T22:36:27.246Z,47.10
2022-10-22T22:39:09.897Z,48.00
2022-10-22T22:42:05.972Z,46.38
2022-10-22T22:44:54.916Z,49.33
2022-10-22T22:47:38.278Z,48.78
2022-10-22T22:50:26.995Z,47.40
2022-10-22T22:53:09.281Z,47.83
2022-10-22T22:55:57.953Z,48.65
2022-10-22T22:58:47.892Z,46.55
2022-10-22T23:01:39.293Z,48.38
2022-10-22T23:04:29.897Z,48.15
2022-10-22T23:07:18.236Z,48.35
2022-10-22T23:10:00.032Z,49.70
2022-10-22T23:12:49.232Z,52.55
2022-10-22T23:15:31.022Z,51.63
2022-10-22T23:18:20.311Z,51.60
2022-10-22T23:21:02.971Z,51.80
2022-10-22T23:23:50.395Z,54.00
2022-10-22T23:26:42.027Z,52.63
2022-10-22T23:29:30.274Z,52.42
2022-10-22T23:32:24.984Z,52.92
2022-10-22T23:35:13.981Z,53.45
2022-10-22T23:38:08.973Z,52.03
2022-10-22T23:40:58.732Z,54.35
2022-10-22T23:43:49.014Z,54.53
2022-10-22T23:46:39.600Z,56.35
2022-10-22T23:49:21.991Z,53.42
2022-10-22T23:52:04.193Z,52.25
2022-10-22T23:54:53.028Z,53.22
2022-10-22T23:57:35.337Z,53.22
